createdAt,value
2023-04-23T00:01:58.242Z,19.33
2023-04-23T00:04:26.981Z,18.58
2023-04-23T00:06:55.118Z,16.70
2023-04-23T00:09:24.150Z,16.40
2023-04-23T00:11:51.655Z,15.70
2023-04-23T00:14:18.950Z,15.32
2023-04-23T00:16:46.372Z,13.80
2023-04-23T00:19:18.012Z,13.23
2023-04-23T00:21:45.730Z,12.95
2023-04-23T00:24:12.852Z,16.33
2023-04-23T00:26:40.030Z,11.18
2023-04-23T00:29:07.328Z,14.48
2023-04-23T00:31:34.622Z,14.98
2023-04-23T00:34:01.897Z,13.40
2023-04-23T00:36:29.109Z,15.88
2023-04-23T00:38:56.216Z,10.93
2023-04-23T00:41:24.054Z,11.57
2023-04-23T00:43:53.345Z,11.63
2023-04-23T00:46:21.142Z,12.05
2023-04-23T00:48:48.266Z,13.60
2023-04-23T00:51:17.453Z,11.40
2023-04-23T00:53:44.597Z,19.48
2023-04-23T00:56:12.427Z,12.35
2023-04-23T00:58:40.842Z,15.25
2023-04-23T01:01:08.162Z,12.38
2023-04-23T01:03:37.174Z,14.98
2023-04-23T01:06:05.253Z,14.80
2023-04-23T01:08:34.297Z,19.85
2023-04-23T01:11:03.870Z,11.50
2023-04-23T01:13:31.286Z,12.88
2023-04-23T01:15:59.679Z,13.38
2023-04-23T01:18:27.769Z,12.82
2023-04-23T01:20:54.910Z,14.43
2023-04-23T01:23:22.685Z,14.95
2023-04-23T01:25:50.203Z,16.05
2023-04-23T01:28:17.672Z,13.48
2023-04-23T01:30:46.846Z,14.57
2023-04-23T01:33:15.241Z,13.90
2023-04-23T01:35:43.806Z,15.48
2023-04-23T01:38:14.297Z,13.63
2023-04-23T01:40:41.493Z,12.88
2023-04-23T01:43:09.934Z,14.52
2023-04-23T01:45:37.441Z,11.00
2023-04-23T01:48:04.870Z,13.90
2023-04-23T01:50:32.083Z,12.02
2023-04-23T01:52:59.284Z,11.90
2023-04-23T01:55:26.562Z,13.65
2023-04-23T01:57:53.656Z,16.75
2023-04-23T02:00:20.913Z,17.02
2023-04-23T02:02:48.431Z,17.50
2023-04-23T02:05:18.860Z,24.00
2023-04-23T02:07:48.373Z,26.27
2023-04-23T02:10:16.170Z,21.50
2023-04-23T02:12:43.916Z,18.92
2023-04-23T02:15:12.130Z,17.52
2023-04-23T02:17:42.292Z,16.40
2023-04-23T02:20:10.743Z,13.48
2023-04-23T02:22:42.733Z,14.30
2023-04-23T02:25:11.212Z,15.18
2023-04-23T02:27:38.407Z,12.40
2023-04-23T02:30:08.609Z,10.68
2023-04-23T02:32:37.546Z,11.93
2023-04-23T02:35:06.794Z,11.57
2023-04-23T02:37:34.122Z,9.65
2023-04-23T02:40:01.728Z,11.60
2023-04-23T02:42:28.784Z,12.07
2023-04-23T02:44:55.937Z,11.65
2023-04-23T02:47:23.109Z,13.55
2023-04-23T02:49:50.444Z,10.75
2023-04-23T02:52:17.726Z,11.15
2023-04-23T02:54:44.846Z,14.10
2023-04-23T02:57:14.636Z,12.10
2023-04-23T02:59:41.718Z,14.93
2023-04-23T03:02:08.971Z,14.10
2023-04-23T03:04:36.158Z,15.30
2023-04-23T03:07:03.358Z,18.58
2023-04-23T03:09:30.469Z,14.23
2023-04-23T03:11:58.121Z,13.30
2023-04-23T03:14:25.547Z,16.80
2023-04-23T03:16:52.647Z,14.93
2023-04-23T03:19:19.789Z,15.55
2023-04-23T03:21:47.036Z,17.58
2023-04-23T03:24:15.268Z,12.68
2023-04-23T03:26:42.401Z,12.60
2023-04-23T03:29:10.734Z,12.85
2023-04-23T03:31:37.803Z,16.98
2023-04-23T03:34:04.895Z,10.20
2023-04-23T03:36:32.558Z,14.45
2023-04-23T03:38:59.737Z,17.50
2023-04-23T03:41:26.847Z,15.55
2023-04-23T03:43:54.011Z,16.90
2023-04-23T03:46:21.217Z,13.23
2023-04-23T03:48:48.420Z,14.80
2023-04-23T03:51:16.264Z,16.67
2023-04-23T03:53:43.382Z,18.02
2023-04-23T03:56:10.637Z,18.20
2023-04-23T03:58:38.291Z,21.75
2023-04-23T04:01:05.907Z,21.02
2023-04-23T04:03:33.173Z,19.55
2023-04-23T04:06:00.415Z,21.90
2023-04-23T04:08:27.529Z,18.95
2023-04-23T04:10:54.765Z,16.13
2023-04-23T04:13:22.117Z,24.90
2023-04-23T04:15:49.310Z,21.77
2023-04-23T04:18:16.516Z,20.10
2023-04-23T04:20:44.514Z,18.75
2023-04-23T04:23:11.609Z,18.67
2023-04-23T04:25:40.335Z,20.58
2023-04-23T04:28:09.643Z,15.27
2023-04-23T04:30:36.865Z,20.45
2023-04-23T04:33:04.074Z,16.67
2023-04-23T04:35:31.322Z,15.10
2023-04-23T04:37:59.018Z,17.85
2023-04-23T04:40:28.890Z,16.65
2023-04-23T04:42:56.037Z,13.70
2023-04-23T04:45:24.034Z,12.98
2023-04-23T04:47:51.686Z,14.45
2023-04-23T04:50:18.864Z,14.48
2023-04-23T04:52:46.221Z,11.38
2023-04-23T04:55:13.371Z,11.80
2023-04-23T04:57:40.472Z,14.68
2023-04-23T05:00:29.598Z,12.68
2023-04-23T05:02:58.806Z,12.45
2023-04-23T05:05:27.078Z,13.80
2023-04-23T05:07:54.605Z,18.10
2023-04-23T05:10:22.267Z,18.15
2023-04-23T05:12:49.494Z,23.33
2023-04-23T05:15:16.681Z,17.17
2023-04-23T05:17:44.235Z,17.65
2023-04-23T05:20:11.792Z,19.88
2023-04-23T05:22:39.556Z,15.55
2023-04-23T05:25:07.739Z,14.10
2023-04-23T05:27:35.507Z,14.75
2023-04-23T05:30:04.507Z,13.45
2023-04-23T05:32:31.762Z,15.65
2023-04-23T05:35:00.244Z,18.75
2023-04-23T05:37:27.330Z,17.05
2023-04-23T05:39:54.412Z,17.20
2023-04-23T05:42:21.871Z,15.60
2023-04-23T05:44:48.999Z,17.65
2023-04-23T05:47:16.174Z,17.67
2023-04-23T05:49:43.295Z,18.60
2023-04-23T05:52:10.560Z,22.83
2023-04-23T05:54:37.778Z,30.10
2023-04-23T05:57:05.301Z,34.67
2023-04-23T05:59:32.818Z,33.15
2023-04-23T06:02:00.488Z,36.13
2023-04-23T06:04:27.854Z,20.65
2023-04-23T06:06:55.302Z,24.60
2023-04-23T06:09:22.641Z,18.63
2023-04-23T06:11:50.877Z,19.58
2023-04-23T06:14:18.033Z,16.10
2023-04-23T06:16:45.343Z,25.48
2023-04-23T06:19:13.002Z,15.27
2023-04-23T06:21:40.405Z,25.48
2023-04-23T06:24:08.320Z,24.42
2023-04-23T06:26:35.585Z,23.58
2023-04-23T06:29:03.007Z,31.55
2023-04-23T06:31:30.646Z,19.63
2023-04-23T06:33:57.898Z,29.23
2023-04-23T06:36:25.243Z,15.63
2023-04-23T06:38:52.448Z,21.90
2023-04-23T06:41:19.776Z,23.63
2023-04-23T06:43:48.500Z,26.92
2023-04-23T06:46:15.819Z,22.27
2023-04-23T06:48:43.078Z,13.18
2023-04-23T06:51:10.192Z,12.65
2023-04-23T06:53:37.462Z,15.05
2023-04-23T06:56:04.762Z,13.25
2023-04-23T06:58:32.384Z,8.15
2023-04-23T07:01:00.565Z,10.27
2023-04-23T07:03:28.638Z,13.48
2023-04-23T07:05:55.973Z,14.98
2023-04-23T07:08:23.154Z,15.65
2023-04-23T07:10:50.596Z,9.13
2023-04-23T07:13:17.797Z,11.75
2023-04-23T07:15:45.188Z,9.63
2023-04-23T07:18:12.540Z,10.07
2023-04-23T07:20:40.104Z,16.17
2023-04-23T07:23:07.723Z,9.23
2023-04-23T07:25:34.911Z,15.00
2023-04-23T07:28:02.184Z,11.32
2023-04-23T07:30:29.575Z,9.25
2023-04-23T07:32:57.234Z,20.73
2023-04-23T07:35:24.483Z,16.70
2023-04-23T07:37:54.058Z,11.38
2023-04-23T07:40:22.702Z,10.27
2023-04-23T07:42:51.239Z,12.48
2023-04-23T07:45:19.421Z,16.65
2023-04-23T07:47:49.538Z,10.57
2023-04-23T07:50:16.803Z,12.65
2023-04-23T07:52:47.537Z,9.20
2023-04-23T07:55:15.548Z,8.15
2023-04-23T07:57:43.087Z,15.38
2023-04-23T08:00:11.503Z,16.70
2023-04-23T08:02:38.764Z,16.10
2023-04-23T08:05:07.105Z,37.50
2023-04-23T08:07:34.487Z,65.25
2023-04-23T08:10:05.445Z,59.20
2023-04-23T08:12:36.011Z,64.95
2023-04-23T08:15:03.941Z,95.32
2023-04-23T08:17:31.188Z,25.80
2023-04-23T08:19:58.295Z,29.27
2023-04-23T08:22:25.665Z,10.10
2023-04-23T08:24:53.260Z,16.42
2023-04-23T08:27:20.517Z,17.13
2023-04-23T08:29:47.764Z,19.20
2023-04-23T08:32:15.070Z,10.43
2023-04-23T08:34:42.306Z,13.88
2023-04-23T08:37:16.581Z,11.10
2023-04-23T08:39:53.574Z,23.02
2023-04-23T08:42:48.036Z,14.27
2023-04-23T08:45:15.388Z,10.18
2023-04-23T08:47:46.936Z,8.25
2023-04-23T08:50:18.989Z,8.63
2023-04-23T08:53:10.757Z,11.73
2023-04-23T08:55:44.222Z,16.77
2023-04-23T08:58:16.886Z,9.50
2023-04-23T09:03:12.529Z,6.00
2023-04-23T09:05:40.868Z,9.02
2023-04-23T09:08:08.822Z,7.57
2023-04-23T09:10:42.125Z,10.30
2023-04-23T09:13:09.970Z,8.18
2023-04-23T09:15:45.674Z,7.10
2023-04-23T09:18:14.075Z,9.98
2023-04-23T09:20:50.235Z,11.07
2023-04-23T09:23:26.754Z,7.05
2023-04-23T09:25:54.310Z,5.60
2023-04-23T09:28:21.423Z,6.15
2023-04-23T09:30:49.320Z,5.35
2023-04-23T09:33:22.659Z,5.22
2023-04-23T09:35:55.157Z,4.43
2023-04-23T09:38:22.783Z,6.35
2023-04-23T09:40:51.075Z,2.35
2023-04-23T09:43:31.254Z,4.20
2023-04-23T09:45:58.413Z,3.13
2023-04-23T09:48:40.668Z,3.35
2023-04-23T09:51:07.832Z,6.63
2023-04-23T09:53:46.415Z,2.22
2023-04-23T09:56:13.638Z,3.15
2023-04-23T09:58:40.746Z,4.15
2023-04-23T10:01:09.500Z,3.00
2023-04-23T10:03:37.860Z,5.78
2023-04-23T10:06:09.193Z,3.38
2023-04-23T10:08:44.708Z,5.13
2023-04-23T10:13:47.514Z,4.15
2023-04-23T10:16:23.141Z,2.63
2023-04-23T10:18:57.198Z,2.00
2023-04-23T10:21:39.464Z,1.65
2023-04-23T10:24:15.011Z,1.90
2023-04-23T10:26:43.900Z,5.13
2023-04-23T10:29:16.568Z,7.40
2023-04-23T10:31:46.911Z,2.45
2023-04-23T10:34:16.780Z,2.08
2023-04-23T10:36:44.129Z,1.65
2023-04-23T10:39:12.491Z,2.45
2023-04-23T10:41:41.706Z,2.15
2023-04-23T10:44:44.938Z,2.00
2023-04-23T10:47:14.337Z,2.10
2023-04-23T10:49:42.820Z,1.50
2023-04-23T10:52:20.626Z,3.88
2023-04-23T10:54:57.251Z,2.40
2023-04-23T10:57:24.428Z,6.88
2023-04-23T10:59:56.542Z,2.33
2023-04-23T11:02:25.051Z,1.55
2023-04-23T11:04:59.517Z,1.15
2023-04-23T11:07:31.792Z,3.35
2023-04-23T11:10:13.646Z,6.75
2023-04-23T11:12:41.576Z,4.07
2023-04-23T11:15:14.124Z,2.22
2023-04-23T11:17:44.508Z,2.25
2023-04-23T11:20:22.748Z,2.47
2023-04-23T11:22:53.618Z,1.67
2023-04-23T11:25:23.343Z,3.45
2023-04-23T11:27:52.323Z,3.95
2023-04-23T11:30:21.698Z,6.28
2023-04-23T11:32:51.595Z,2.65
2023-04-23T11:35:20.804Z,5.70
2023-04-23T11:37:48.765Z,3.13
2023-04-23T11:40:20.596Z,3.55
2023-04-23T11:42:50.043Z,1.63
2023-04-23T11:45:22.168Z,2.40
2023-04-23T11:47:51.411Z,9.80
2023-04-23T11:50:33.705Z,3.58
2023-04-23T11:53:09.063Z,1.98
2023-04-23T11:55:36.565Z,2.38
2023-04-23T11:58:04.329Z,1.75
2023-04-23T12:00:31.519Z,2.33
2023-04-23T12:03:02.547Z,1.85
2023-04-23T12:05:39.898Z,5.72
2023-04-23T12:08:18.490Z,3.80
2023-04-23T12:10:59.398Z,3.20
2023-04-23T12:13:31.652Z,2.60
2023-04-23T12:16:03.954Z,2.10
2023-04-23T12:18:32.862Z,6.28
2023-04-23T12:21:11.668Z,2.30
2023-04-23T12:23:41.795Z,2.80
2023-04-23T12:26:13.877Z,5.28
2023-04-23T12:28:58.383Z,2.95
2023-04-23T12:31:31.185Z,2.35
2023-04-23T12:34:09.735Z,1.90
2023-04-23T12:36:38.059Z,2.25
2023-04-23T12:39:22.037Z,2.85
2023-04-23T12:41:52.350Z,2.75
2023-04-23T12:44:19.569Z,3.33
2023-04-23T12:46:56.999Z,3.78
2023-04-23T12:49:25.125Z,2.13
2023-04-23T12:51:52.868Z,3.67
2023-04-23T12:54:20.078Z,2.38
2023-04-23T12:56:47.234Z,2.95
2023-04-23T12:59:14.395Z,2.80
2023-04-23T13:01:41.926Z,3.03
2023-04-23T13:04:09.342Z,2.20
2023-04-23T13:06:36.648Z,2.25
2023-04-23T13:09:05.587Z,3.63
2023-04-23T13:11:33.438Z,2.13
2023-04-23T13:14:00.621Z,4.70
2023-04-23T13:16:28.040Z,3.13
2023-04-23T13:18:55.611Z,4.53
2023-04-23T13:21:23.279Z,3.53
2023-04-23T13:23:51.523Z,2.20
2023-04-23T13:26:18.954Z,4.13
2023-04-23T13:28:46.269Z,3.00
2023-04-23T13:31:13.884Z,2.45
2023-04-23T13:33:42.197Z,1.67
2023-04-23T13:36:09.429Z,2.10
2023-04-23T13:38:36.692Z,5.95
2023-04-23T13:41:04.669Z,3.67
2023-04-23T13:43:31.883Z,3.13
2023-04-23T13:46:01.407Z,5.68
2023-04-23T13:48:31.291Z,3.47
2023-04-23T13:51:01.333Z,2.67
2023-04-23T13:53:28.844Z,3.22
2023-04-23T13:55:56.852Z,4.88
2023-04-23T13:58:24.349Z,2.03
2023-04-23T14:00:52.525Z,4.60
2023-04-23T14:03:20.660Z,2.03
2023-04-23T14:05:47.992Z,3.67
2023-04-23T14:08:15.134Z,2.97
2023-04-23T14:10:43.702Z,2.85
2023-04-23T14:13:11.154Z,3.67
2023-04-23T14:15:38.453Z,2.35
2023-04-23T14:18:05.934Z,3.30
2023-04-23T14:20:33.220Z,3.88
2023-04-23T14:23:22.266Z,3.05
2023-04-23T14:25:54.330Z,2.63
2023-04-23T14:28:39.348Z,2.47
2023-04-23T14:31:06.665Z,3.80
2023-04-23T14:33:33.868Z,3.03
2023-04-23T14:36:01.081Z,4.82
2023-04-23T14:38:28.315Z,3.38
2023-04-23T14:40:56.390Z,3.00
2023-04-23T14:43:23.658Z,2.95
2023-04-23T14:45:52.139Z,2.72
2023-04-23T14:48:19.321Z,2.15
2023-04-23T14:50:46.672Z,2.72
2023-04-23T14:53:13.812Z,4.22
2023-04-23T14:55:43.527Z,4.97
2023-04-23T14:58:10.772Z,3.42
2023-04-23T15:00:37.899Z,1.77
2023-04-23T15:03:11.179Z,2.42
2023-04-23T15:05:40.233Z,3.97
2023-04-23T15:08:08.047Z,2.20
2023-04-23T15:10:35.251Z,3.63
2023-04-23T15:13:29.704Z,2.88
2023-04-23T15:16:02.518Z,3.67
2023-04-23T15:18:29.961Z,8.52
2023-04-23T15:20:57.171Z,6.78
2023-04-23T15:23:24.762Z,3.58
2023-04-23T15:25:53.097Z,2.58
2023-04-23T15:28:20.253Z,3.17
2023-04-23T15:30:47.796Z,2.70
2023-04-23T15:33:14.875Z,5.45
2023-04-23T15:35:42.254Z,5.50
2023-04-23T15:38:09.569Z,3.33
2023-04-23T15:40:42.282Z,4.18
2023-04-23T15:43:16.276Z,2.22
2023-04-23T15:45:43.740Z,3.05
2023-04-23T15:48:10.983Z,4.05
2023-04-23T15:50:38.206Z,2.55
2023-04-23T15:53:05.384Z,4.57
2023-04-23T15:55:34.193Z,5.35
2023-04-23T15:58:04.280Z,7.07
2023-04-23T16:00:34.762Z,4.88
2023-04-23T16:03:05.715Z,4.93
2023-04-23T16:05:33.303Z,5.70
2023-04-23T16:08:00.707Z,2.30
2023-04-23T16:10:30.328Z,5.13
2023-04-23T16:12:58.819Z,5.57
2023-04-23T16:15:26.406Z,5.15
2023-04-23T16:17:53.658Z,4.00
2023-04-23T16:20:20.882Z,4.45
2023-04-23T16:22:48.207Z,4.53
2023-04-23T16:25:15.705Z,6.88
2023-04-23T16:27:43.163Z,4.45
2023-04-23T16:30:10.893Z,6.35
2023-04-23T16:32:39.043Z,4.97
2023-04-23T16:35:07.137Z,6.63
2023-04-23T16:37:34.746Z,6.68
2023-04-23T16:40:04.205Z,4.57
2023-04-23T16:42:31.902Z,4.95
2023-04-23T16:44:59.201Z,3.35
2023-04-23T16:47:27.185Z,7.00
2023-04-23T16:49:54.493Z,5.05
2023-04-23T16:52:23.686Z,5.50
2023-04-23T16:54:51.097Z,7.18
2023-04-23T16:57:18.764Z,10.65
2023-04-23T16:59:46.512Z,5.22
2023-04-23T17:02:13.928Z,8.30
2023-04-23T17:04:41.403Z,4.40
2023-04-23T17:07:09.303Z,5.32
2023-04-23T17:09:36.476Z,7.35
2023-04-23T17:12:03.954Z,4.97
2023-04-23T17:14:31.159Z,5.88
2023-04-23T17:16:58.409Z,5.40
2023-04-23T17:19:25.660Z,8.77
2023-04-23T17:21:53.229Z,4.80
2023-04-23T17:24:21.043Z,5.68
2023-04-23T17:26:49.563Z,8.30
2023-04-23T17:29:17.112Z,7.22
2023-04-23T17:31:44.329Z,5.78
2023-04-23T17:34:11.453Z,3.80
2023-04-23T17:36:38.874Z,7.70
2023-04-23T17:39:06.099Z,7.05
2023-04-23T17:41:33.640Z,6.78
2023-04-23T17:44:01.972Z,8.63
2023-04-23T17:46:29.385Z,12.50
2023-04-23T17:48:57.137Z,17.98
2023-04-23T17:51:24.447Z,11.63
2023-04-23T17:53:52.097Z,11.35
2023-04-23T17:56:19.419Z,10.55
2023-04-23T17:58:47.151Z,8.32
2023-04-23T18:01:15.579Z,7.85
2023-04-23T18:03:43.022Z,8.30
2023-04-23T18:06:10.290Z,9.43
2023-04-23T18:08:39.032Z,11.80
2023-04-23T18:11:08.096Z,11.10
2023-04-23T18:13:36.467Z,13.30
2023-04-23T18:16:03.640Z,14.20
2023-04-23T18:18:30.861Z,14.13
2023-04-23T18:20:58.194Z,12.48
2023-04-23T18:23:26.325Z,8.68
2023-04-23T18:25:53.651Z,8.25
2023-04-23T18:28:21.596Z,9.70
2023-04-23T18:30:48.851Z,9.30
2023-04-23T18:33:16.714Z,7.78
2023-04-23T18:35:47.229Z,7.90
2023-04-23T18:38:37.560Z,7.53
2023-04-23T18:41:05.012Z,7.60
2023-04-23T18:43:32.805Z,7.28
2023-04-23T18:46:00.899Z,11.00
2023-04-23T18:48:33.895Z,11.13
2023-04-23T18:51:17.640Z,11.55
2023-04-23T18:53:44.979Z,12.07
2023-04-23T18:56:12.270Z,13.13
2023-04-23T18:58:39.842Z,21.15
2023-04-23T19:01:07.328Z,18.63
2023-04-23T19:03:34.701Z,16.67
2023-04-23T19:06:07.861Z,25.48
2023-04-23T19:08:36.023Z,15.80
2023-04-23T19:11:03.827Z,13.00
2023-04-23T19:13:31.894Z,13.82
2023-04-23T19:16:00.468Z,13.35
2023-04-23T19:18:29.726Z,18.20
2023-04-23T19:20:58.386Z,18.40
2023-04-23T19:23:25.625Z,17.90
2023-04-23T19:25:52.869Z,18.25
2023-04-23T19:28:20.134Z,18.17
2023-04-23T19:30:47.368Z,20.83
2023-04-23T19:33:14.479Z,18.35
2023-04-23T19:35:41.836Z,15.85
2023-04-23T19:38:09.585Z,16.35
2023-04-23T19:40:36.715Z,21.02
2023-04-23T19:43:04.396Z,20.60
2023-04-23T19:45:32.518Z,21.63
2023-04-23T19:48:00.133Z,20.20
2023-04-23T19:50:27.692Z,18.92
2023-04-23T19:52:54.863Z,19.85
2023-04-23T19:55:27.184Z,20.85
2023-04-23T19:57:56.571Z,21.50
2023-04-23T20:00:24.851Z,15.80
2023-04-23T20:02:52.909Z,15.65
2023-04-23T20:05:20.312Z,14.98
2023-04-23T20:07:47.462Z,19.00
2023-04-23T20:10:17.314Z,14.75
2023-04-23T20:12:44.807Z,16.33
2023-04-23T20:15:12.848Z,15.65
2023-04-23T20:17:40.536Z,17.80
2023-04-23T20:20:10.348Z,14.05
2023-04-23T20:22:38.658Z,13.10
2023-04-23T20:25:06.420Z,12.43
2023-04-23T20:27:33.718Z,17.17
2023-04-23T20:30:01.612Z,35.67
2023-04-23T20:32:29.618Z,12.35
2023-04-23T20:34:58.337Z,18.55
2023-04-23T20:37:27.161Z,20.52
2023-04-23T20:39:56.076Z,13.85
2023-04-23T20:42:26.053Z,16.95
2023-04-23T20:44:53.320Z,15.38
2023-04-23T20:47:20.720Z,12.88
2023-04-23T20:49:47.941Z,14.00
2023-04-23T20:52:16.779Z,13.80
2023-04-23T20:54:46.670Z,15.93
2023-04-23T20:57:15.366Z,16.55
2023-04-23T20:59:43.235Z,15.15
2023-04-23T21:02:13.607Z,12.98
2023-04-23T21:04:41.392Z,15.10
2023-04-23T21:07:16.509Z,14.77
2023-04-23T21:09:44.110Z,17.55
2023-04-23T21:12:11.857Z,14.38
2023-04-23T21:14:39.028Z,14.73
2023-04-23T21:17:10.697Z,15.13
2023-04-23T21:19:40.716Z,17.13
2023-04-23T21:22:08.155Z,12.60
2023-04-23T21:24:35.317Z,19.35
2023-04-23T21:27:03.858Z,15.70
2023-04-23T21:29:31.806Z,18.00
2023-04-23T21:31:59.090Z,16.00
2023-04-23T21:34:32.658Z,25.30
2023-04-23T21:36:59.781Z,24.77
2023-04-23T21:39:28.565Z,22.42
2023-04-23T21:41:57.245Z,18.67
2023-04-23T21:44:25.494Z,19.30
2023-04-23T21:46:53.564Z,21.15
2023-04-23T21:49:21.132Z,21.73
2023-04-23T21:51:50.349Z,20.95
2023-04-23T21:54:18.205Z,24.38
2023-04-23T21:56:45.629Z,21.58
2023-04-23T21:59:13.999Z,29.25
2023-04-23T22:01:42.080Z,30.52
2023-04-23T22:04:10.370Z,28.48
2023-04-23T22:06:38.135Z,30.45
2023-04-23T22:09:09.897Z,27.63
2023-04-23T22:11:37.009Z,28.75
2023-04-23T22:14:05.697Z,23.85
2023-04-23T22:16:34.458Z,22.65
2023-04-23T22:19:04.782Z,21.67
2023-04-23T22:21:33.130Z,17.08
2023-04-23T22:24:00.520Z,23.25
2023-04-23T22:26:29.357Z,24.13
2023-04-23T22:28:56.800Z,19.10
2023-04-23T22:31:24.726Z,24.88
2023-04-23T22:33:53.255Z,23.63
2023-04-23T22:36:22.252Z,20.60
2023-04-23T22:38:49.369Z,23.23
2023-04-23T22:41:16.704Z,22.05
2023-04-23T22:43:44.293Z,18.10
2023-04-23T22:46:11.528Z,19.17
2023-04-23T22:48:44.175Z,21.60
2023-04-23T22:51:12.059Z,20.08
2023-04-23T22:53:39.176Z,16.48
2023-04-23T22:56:07.682Z,17.00
2023-04-23T22:58:34.903Z,18.17
2023-04-23T23:01:02.119Z,18.95
2023-04-23T23:03:29.468Z,16.80
2023-04-23T23:05:56.738Z,15.45
2023-04-23T23:08:23.901Z,17.67
2023-04-23T23:10:51.042Z,16.08
2023-04-23T23:13:18.229Z,19.23
2023-04-23T23:15:45.362Z,17.70
2023-04-23T23:18:12.668Z,16.02
2023-04-23T23:20:41.197Z,17.08
2023-04-23T23:23:08.362Z,16.80
2023-04-23T23:25:38.571Z,18.88
2023-04-23T23:28:06.065Z,17.10
2023-04-23T23:30:33.280Z,16.90
2023-04-23T23:33:01.290Z,15.85
2023-04-23T23:35:28.445Z,16.95
2023-04-23T23:37:55.958Z,14.77
2023-04-23T23:40:22.984Z,15.73
2023-04-23T23:42:50.294Z,15.52
2023-04-23T23:45:17.467Z,16.67
2023-04-23T23:47:44.696Z,14.43
2023-04-23T23:50:11.959Z,16.25
2023-04-23T23:52:39.126Z,15.88
2023-04-23T23:55:07.354Z,12.15
2023-04-23T23:57:34.455Z,13.57
